createdAt,value
2022-08-20T00:00:14.835Z,100.00
2022-08-20T00:02:45.192Z,100.00
2022-08-20T00:05:15.186Z,100.00
2022-08-20T00:07:45.129Z,100.00
2022-08-20T00:10:16.621Z,100.00
2022-08-20T00:12:46.508Z,100.00
2022-08-20T00:15:15.978Z,100.00
2022-08-20T00:17:44.559Z,100.00
2022-08-20T00:20:14.610Z,100.00
2022-08-20T00:22:44.574Z,100.00
2022-08-20T00:25:13.912Z,100.00
2022-08-20T00:27:42.589Z,100.00
2022-08-20T00:30:13.993Z,100.00
2022-08-20T00:32:44.594Z,100.00
2022-08-20T00:35:14.377Z,100.00
2022-08-20T00:37:44.328Z,100.00
2022-08-20T00:40:22.910Z,100.00
2022-08-20T00:42:54.033Z,100.00
2022-08-20T00:45:23.082Z,100.00
2022-08-20T00:47:51.826Z,100.00
2022-08-20T00:50:24.897Z,100.00
2022-08-20T00:52:55.930Z,100.00
2022-08-20T00:55:31.085Z,100.00
2022-08-20T00:58:03.341Z,100.00
2022-08-20T01:00:37.825Z,100.00
2022-08-20T01:03:10.044Z,100.00
2022-08-20T01:05:39.438Z,100.00
2022-08-20T01:08:09.873Z,100.00
2022-08-20T01:10:41.950Z,100.00
2022-08-20T01:13:14.510Z,100.00
2022-08-20T01:15:47.391Z,100.00
2022-08-20T01:18:19.941Z,100.00
2022-08-20T01:20:52.787Z,100.00
2022-08-20T01:23:30.261Z,100.00
2022-08-20T01:26:06.105Z,100.00
2022-08-20T01:28:43.616Z,100.00
2022-08-20T01:31:15.437Z,100.00
2022-08-20T01:33:47.287Z,100.00
2022-08-20T01:36:17.970Z,100.00
2022-08-20T01:38:53.162Z,100.00
2022-08-20T01:41:40.720Z,100.00
2022-08-20T01:44:16.793Z,100.00
2022-08-20T01:46:50.026Z,100.00
2022-08-20T01:49:23.169Z,100.00
2022-08-20T01:51:54.014Z,100.00
2022-08-20T01:54:23.833Z,100.00
2022-08-20T01:56:57.878Z,100.00
2022-08-20T01:59:26.310Z,100.00
2022-08-20T02:01:55.032Z,100.00
2022-08-20T02:04:23.970Z,100.00
2022-08-20T02:06:57.053Z,100.00
2022-08-20T02:09:27.961Z,100.00
2022-08-20T02:11:58.556Z,100.00
2022-08-20T02:14:28.444Z,100.00
2022-08-20T02:16:58.683Z,100.00
2022-08-20T02:19:31.243Z,100.00
2022-08-20T02:22:03.560Z,100.00
2022-08-20T02:24:32.253Z,100.00
2022-08-20T02:27:02.241Z,100.00
2022-08-20T02:29:30.962Z,100.00
2022-08-20T02:32:24.374Z,100.00
2022-08-20T02:34:49.565Z,100.00
2022-08-20T02:37:19.272Z,100.00
2022-08-20T02:39:48.190Z,100.00
2022-08-20T02:42:18.317Z,100.00
2022-08-20T02:44:46.859Z,100.00
2022-08-20T02:47:15.385Z,100.00
2022-08-20T02:49:44.028Z,100.00
2022-08-20T02:52:12.584Z,100.00
2022-08-20T02:54:41.295Z,100.00
2022-08-20T02:57:14.001Z,100.00
2022-08-20T02:59:45.246Z,100.00
2022-08-20T03:02:14.238Z,100.00
2022-08-20T03:04:43.337Z,100.00
2022-08-20T03:07:13.040Z,100.00
2022-08-20T03:09:42.000Z,100.00
2022-08-20T03:12:10.981Z,100.00
2022-08-20T03:14:39.549Z,100.00
2022-08-20T03:17:09.766Z,100.00
2022-08-20T03:19:38.390Z,100.00
2022-08-20T03:22:07.109Z,100.00
2022-08-20T03:24:35.762Z,100.00
2022-08-20T03:27:04.483Z,100.00
2022-08-20T03:29:33.001Z,100.00
2022-08-20T03:32:06.002Z,100.00
2022-08-20T03:34:37.549Z,100.00
2022-08-20T03:37:12.198Z,100.00
2022-08-20T03:39:41.498Z,100.00
2022-08-20T03:42:10.062Z,100.00
2022-08-20T03:44:38.711Z,100.00
2022-08-20T03:47:09.388Z,100.00
2022-08-20T03:49:39.351Z,100.00
2022-08-20T03:52:08.101Z,100.00
2022-08-20T03:54:36.679Z,100.00
2022-08-20T03:57:12.628Z,100.00
2022-08-20T03:59:41.966Z,100.00
2022-08-20T04:02:11.157Z,100.00
2022-08-20T04:04:42.390Z,100.00
2022-08-20T04:07:12.185Z,100.00
2022-08-20T04:09:40.954Z,100.00
2022-08-20T04:12:12.412Z,100.00
2022-08-20T04:14:41.079Z,100.00
2022-08-20T04:17:12.308Z,100.00
2022-08-20T04:19:44.315Z,100.00
2022-08-20T04:22:14.760Z,100.00
2022-08-20T04:24:43.922Z,100.00
2022-08-20T04:27:15.055Z,100.00
2022-08-20T04:29:44.654Z,100.00
2022-08-20T04:32:14.030Z,100.00
2022-08-20T04:34:47.265Z,100.00
2022-08-20T04:37:16.567Z,100.00
2022-08-20T04:40:06.373Z,100.00
2022-08-20T04:42:36.233Z,100.00
2022-08-20T04:45:07.806Z,100.00
2022-08-20T04:47:36.559Z,100.00
2022-08-20T04:50:10.527Z,100.00
2022-08-20T04:52:39.108Z,100.00
2022-08-20T04:55:09.132Z,100.00
2022-08-20T04:57:38.886Z,100.00
2022-08-20T05:00:11.226Z,100.00
2022-08-20T05:02:39.962Z,100.00
2022-08-20T05:05:10.952Z,100.00
2022-08-20T05:07:41.570Z,100.00
2022-08-20T05:10:14.261Z,100.00
2022-08-20T05:12:44.137Z,100.00
2022-08-20T05:15:26.056Z,100.00
2022-08-20T05:17:57.977Z,100.00
2022-08-20T05:20:32.709Z,100.00
2022-08-20T05:23:02.740Z,100.00
2022-08-20T05:25:31.949Z,100.00
2022-08-20T05:28:00.909Z,100.00
2022-08-20T05:30:33.442Z,100.00
2022-08-20T05:33:03.444Z,100.00
2022-08-20T05:35:35.910Z,100.00
2022-08-20T05:38:04.430Z,100.00
2022-08-20T05:40:33.486Z,100.00
2022-08-20T05:43:04.881Z,100.00
2022-08-20T05:45:34.269Z,100.00
2022-08-20T05:48:05.657Z,100.00
2022-08-20T05:50:36.083Z,100.00
2022-08-20T05:53:04.974Z,100.00
2022-08-20T05:55:33.754Z,100.00
2022-08-20T05:58:04.269Z,100.00
2022-08-20T06:00:33.863Z,100.00
2022-08-20T06:03:19.972Z,100.00
2022-08-20T06:05:50.082Z,100.00
2022-08-20T06:08:18.859Z,100.00
2022-08-20T06:10:47.897Z,100.00
2022-08-20T06:13:16.615Z,100.00
2022-08-20T06:15:45.184Z,100.00
2022-08-20T06:18:28.348Z,100.00
2022-08-20T06:20:58.935Z,100.00
2022-08-20T06:23:27.673Z,100.00
2022-08-20T06:26:16.278Z,100.00
2022-08-20T06:28:54.076Z,100.00
2022-08-20T06:31:23.243Z,100.00
2022-08-20T06:33:51.836Z,100.00
2022-08-20T06:36:21.846Z,100.00
2022-08-20T06:38:50.736Z,100.00
2022-08-20T06:41:19.566Z,100.00
2022-08-20T06:43:48.808Z,100.00
2022-08-20T06:46:17.369Z,100.00
2022-08-20T06:48:46.009Z,100.00
2022-08-20T06:51:14.504Z,100.00
2022-08-20T06:53:44.426Z,100.00
2022-08-20T06:56:13.693Z,100.00
2022-08-20T06:58:42.252Z,100.00
2022-08-20T07:01:13.788Z,100.00
2022-08-20T07:03:54.499Z,100.00
2022-08-20T07:06:25.806Z,100.00
2022-08-20T07:08:56.786Z,100.00
2022-08-20T07:11:28.117Z,100.00
2022-08-20T07:13:58.752Z,100.00
2022-08-20T07:16:28.406Z,100.00
2022-08-20T07:18:57.515Z,100.00
2022-08-20T07:21:26.111Z,100.00
2022-08-20T07:23:56.260Z,100.00
2022-08-20T07:26:24.977Z,100.00
2022-08-20T07:28:54.523Z,100.00
2022-08-20T07:31:42.178Z,100.00
2022-08-20T07:34:11.759Z,100.00
2022-08-20T07:36:40.721Z,100.00
2022-08-20T07:39:10.827Z,100.00
2022-08-20T07:41:39.648Z,100.00
2022-08-20T07:44:08.328Z,100.00
2022-08-20T07:46:36.983Z,100.00
2022-08-20T07:49:09.629Z,100.00
2022-08-20T07:51:38.207Z,100.00
2022-08-20T07:54:07.191Z,100.00
2022-08-20T07:56:37.122Z,100.00
2022-08-20T07:59:06.655Z,100.00
2022-08-20T08:01:35.287Z,100.00
2022-08-20T08:04:04.762Z,100.00
2022-08-20T08:06:33.919Z,100.00
2022-08-20T08:09:06.422Z,100.00
2022-08-20T08:11:44.988Z,100.00
2022-08-20T08:14:19.074Z,100.00
2022-08-20T08:16:47.894Z,100.00
2022-08-20T08:19:18.893Z,100.00
2022-08-20T08:21:47.506Z,100.00
2022-08-20T08:24:21.015Z,100.00
2022-08-20T08:26:52.583Z,100.00
2022-08-20T08:29:21.176Z,100.00
2022-08-20T08:31:49.999Z,100.00
2022-08-20T08:34:18.763Z,100.00
2022-08-20T08:36:47.312Z,100.00
2022-08-20T08:39:16.246Z,100.00
2022-08-20T08:41:49.838Z,100.00
2022-08-20T08:44:24.492Z,100.00
2022-08-20T08:46:57.564Z,100.00
2022-08-20T08:49:37.501Z,100.00
2022-08-20T08:52:14.816Z,100.00
2022-08-20T08:54:48.972Z,100.00
2022-08-20T08:57:17.766Z,100.00
2022-08-20T09:00:04.223Z,100.00
2022-08-20T09:02:36.464Z,100.00
2022-08-20T09:05:14.703Z,100.00
2022-08-20T09:07:48.057Z,100.00
2022-08-20T09:10:16.947Z,100.00
2022-08-20T09:12:52.343Z,100.00
2022-08-20T09:15:23.137Z,100.00
2022-08-20T09:17:51.812Z,100.00
2022-08-20T09:20:20.645Z,100.00
2022-08-20T09:22:55.827Z,100.00
2022-08-20T09:25:25.031Z,100.00
2022-08-20T09:27:53.646Z,100.00
2022-08-20T09:30:24.644Z,100.00
2022-08-20T09:32:53.922Z,100.00
2022-08-20T09:35:22.584Z,100.00
2022-08-20T09:37:52.804Z,100.00
2022-08-20T09:40:22.769Z,100.00
2022-08-20T09:42:51.924Z,100.00
2022-08-20T09:45:21.313Z,100.00
2022-08-20T09:47:56.537Z,100.00
2022-08-20T09:50:26.520Z,100.00
2022-08-20T09:52:56.902Z,100.00
2022-08-20T09:55:30.406Z,100.00
2022-08-20T09:57:59.877Z,100.00
2022-08-20T10:00:28.459Z,100.00
2022-08-20T10:02:58.387Z,100.00
2022-08-20T10:05:27.012Z,100.00
2022-08-20T10:07:55.897Z,100.00
2022-08-20T10:10:24.682Z,100.00
2022-08-20T10:12:55.062Z,100.00
2022-08-20T10:15:23.866Z,100.00
2022-08-20T10:17:52.594Z,100.00
2022-08-20T10:20:22.777Z,100.00
2022-08-20T10:22:51.859Z,100.00
2022-08-20T10:25:20.657Z,100.00
2022-08-20T10:27:49.254Z,100.00
2022-08-20T10:30:18.072Z,100.00
2022-08-20T10:32:46.626Z,100.00
2022-08-20T10:35:15.686Z,100.00
2022-08-20T10:37:46.318Z,99.59
2022-08-20T10:40:16.181Z,97.74
2022-08-20T10:42:45.378Z,99.27
2022-08-20T10:45:16.216Z,96.29
2022-08-20T10:47:45.401Z,96.24
2022-08-20T10:50:16.917Z,94.08
2022-08-20T10:52:47.549Z,93.17
2022-08-20T10:55:16.796Z,94.34
2022-08-20T10:57:45.425Z,92.95
2022-08-20T11:00:15.621Z,90.60
2022-08-20T11:02:44.394Z,90.94
2022-08-20T11:05:12.986Z,91.70
2022-08-20T11:07:55.376Z,92.81
2022-08-20T11:10:27.632Z,89.85
2022-08-20T11:12:56.384Z,90.59
2022-08-20T11:15:25.160Z,88.76
2022-08-20T11:17:55.448Z,89.10
2022-08-20T11:20:26.466Z,88.49
2022-08-20T11:22:55.984Z,87.30
2022-08-20T11:25:26.748Z,87.29
2022-08-20T11:27:56.469Z,87.06
2022-08-20T11:30:27.357Z,86.63
2022-08-20T11:32:57.013Z,86.15
2022-08-20T11:35:48.191Z,83.79
2022-08-20T11:38:15.094Z,83.09
2022-08-20T11:40:46.681Z,83.64
2022-08-20T11:43:16.993Z,82.74
2022-08-20T11:45:47.999Z,76.72
2022-08-20T11:48:18.111Z,76.84
2022-08-20T11:50:47.586Z,76.94
2022-08-20T11:53:16.569Z,76.31
2022-08-20T11:55:46.545Z,77.88
2022-08-20T11:58:16.445Z,74.00
2022-08-20T12:00:45.154Z,74.53
2022-08-20T12:03:14.237Z,74.78
2022-08-20T12:05:45.686Z,75.95
2022-08-20T12:08:26.783Z,77.10
2022-08-20T12:10:59.869Z,76.71
2022-08-20T12:13:47.383Z,78.16
2022-08-20T12:16:18.359Z,78.50
2022-08-20T12:18:47.287Z,79.85
2022-08-20T12:21:16.092Z,79.92
2022-08-20T12:23:44.867Z,79.92
2022-08-20T12:26:16.783Z,78.30
2022-08-20T12:28:45.863Z,78.96
2022-08-20T12:31:14.484Z,77.78
2022-08-20T12:33:43.072Z,76.39
2022-08-20T12:36:12.254Z,76.46
2022-08-20T12:38:40.874Z,78.07
2022-08-20T12:41:09.570Z,79.06
2022-08-20T12:43:39.553Z,77.89
2022-08-20T12:46:08.197Z,77.13
2022-08-20T12:48:36.758Z,77.45
2022-08-20T12:51:05.456Z,78.95
2022-08-20T12:53:34.002Z,77.47
2022-08-20T12:56:05.207Z,76.52
2022-08-20T12:58:34.698Z,75.44
2022-08-20T13:01:04.813Z,74.90
2022-08-20T13:03:33.396Z,75.82
2022-08-20T13:06:13.786Z,77.63
2022-08-20T13:08:42.477Z,77.78
2022-08-20T13:11:11.184Z,77.90
2022-08-20T13:13:39.817Z,78.30
2022-08-20T13:16:10.059Z,76.65
2022-08-20T13:18:38.620Z,77.49
2022-08-20T13:21:07.659Z,78.66
2022-08-20T13:23:36.307Z,78.69
2022-08-20T13:26:05.311Z,79.13
2022-08-20T13:28:33.987Z,80.08
2022-08-20T13:31:03.409Z,81.66
2022-08-20T13:33:33.545Z,82.19
2022-08-20T13:36:02.645Z,81.68
2022-08-20T13:38:32.340Z,82.16
2022-08-20T13:41:00.949Z,83.70
2022-08-20T13:43:29.652Z,84.11
2022-08-20T13:45:58.188Z,85.69
2022-08-20T13:48:26.890Z,88.47
2022-08-20T13:50:57.120Z,90.35
2022-08-20T13:53:26.406Z,91.52
2022-08-20T13:55:55.823Z,92.34
2022-08-20T13:58:24.739Z,91.95
2022-08-20T14:00:53.729Z,93.05
2022-08-20T14:03:25.342Z,94.05
2022-08-20T14:05:54.476Z,93.46
2022-08-20T14:08:25.802Z,97.28
2022-08-20T14:10:55.546Z,98.35
2022-08-20T14:13:26.721Z,100.00
2022-08-20T14:15:56.025Z,100.00
2022-08-20T14:18:24.925Z,100.00
2022-08-20T14:20:53.468Z,100.00
2022-08-20T14:23:22.030Z,100.00
2022-08-20T14:25:52.073Z,100.00
2022-08-20T14:28:23.713Z,100.00
2022-08-20T14:30:53.725Z,100.00
2022-08-20T14:33:23.459Z,100.00
2022-08-20T14:35:52.653Z,100.00
2022-08-20T14:38:21.365Z,100.00
2022-08-20T14:40:51.570Z,100.00
2022-08-20T14:43:20.178Z,100.00
2022-08-20T14:45:48.744Z,100.00
2022-08-20T14:48:17.358Z,100.00
2022-08-20T14:50:46.095Z,100.00
2022-08-20T14:53:14.645Z,100.00
2022-08-20T14:55:43.556Z,100.00
2022-08-20T14:58:15.100Z,100.00
2022-08-20T15:00:44.682Z,100.00
2022-08-20T15:03:14.430Z,100.00
2022-08-20T15:05:44.036Z,100.00
2022-08-20T15:08:12.737Z,100.00
2022-08-20T15:10:41.960Z,100.00
2022-08-20T15:13:10.540Z,100.00
2022-08-20T15:15:41.626Z,100.00
2022-08-20T15:18:10.657Z,100.00
2022-08-20T15:20:39.493Z,100.00
2022-08-20T15:23:08.405Z,100.00
2022-08-20T15:25:38.204Z,100.00
2022-08-20T15:28:09.842Z,100.00
2022-08-20T15:30:43.449Z,100.00
2022-08-20T15:33:13.313Z,100.00
2022-08-20T15:35:41.901Z,100.00
2022-08-20T15:38:10.559Z,100.00
2022-08-20T15:40:39.262Z,100.00
2022-08-20T15:43:08.079Z,100.00
2022-08-20T15:45:37.684Z,100.00
2022-08-20T15:48:14.558Z,100.00
2022-08-20T15:51:01.726Z,100.00
2022-08-20T15:53:35.777Z,100.00
2022-08-20T15:56:11.353Z,100.00
2022-08-20T15:58:46.377Z,100.00
2022-08-20T16:01:25.665Z,100.00
2022-08-20T16:04:20.120Z,100.00
2022-08-20T16:06:53.725Z,100.00
2022-08-20T16:09:39.398Z,100.00
2022-08-20T16:12:11.352Z,100.00
2022-08-20T16:14:43.781Z,100.00
2022-08-20T16:17:16.152Z,100.00
2022-08-20T16:19:53.678Z,100.00
2022-08-20T16:22:22.937Z,100.00
2022-08-20T16:24:51.708Z,100.00
2022-08-20T16:27:28.733Z,100.00
2022-08-20T16:30:02.901Z,100.00
2022-08-20T16:32:39.441Z,100.00
2022-08-20T16:35:28.998Z,100.00
2022-08-20T16:38:10.544Z,100.00
2022-08-20T16:40:47.153Z,100.00
2022-08-20T16:43:22.826Z,100.00
2022-08-20T16:45:56.773Z,100.00
2022-08-20T16:48:33.478Z,100.00
2022-08-20T16:51:08.158Z,100.00
2022-08-20T16:53:36.989Z,100.00
2022-08-20T16:56:06.587Z,100.00
2022-08-20T16:58:35.490Z,100.00
2022-08-20T17:01:13.341Z,100.00
2022-08-20T17:03:53.172Z,100.00
2022-08-20T17:06:29.533Z,100.00
2022-08-20T17:08:58.339Z,100.00
2022-08-20T17:11:32.604Z,100.00
2022-08-20T17:14:10.780Z,100.00
2022-08-20T17:16:46.903Z,100.00
2022-08-20T17:19:20.231Z,100.00
2022-08-20T17:21:50.805Z,100.00
2022-08-20T17:24:25.560Z,100.00
2022-08-20T17:27:00.674Z,100.00
2022-08-20T17:29:32.360Z,100.00
2022-08-20T17:32:09.281Z,100.00
2022-08-20T17:34:47.370Z,100.00
2022-08-20T17:37:24.017Z,100.00
2022-08-20T17:40:06.018Z,100.00
2022-08-20T17:42:34.684Z,100.00
2022-08-20T17:45:12.743Z,100.00
2022-08-20T17:47:44.458Z,100.00
2022-08-20T17:50:16.641Z,100.00
2022-08-20T17:52:51.203Z,100.00
2022-08-20T17:55:21.173Z,100.00
2022-08-20T17:57:53.054Z,100.00
2022-08-20T18:00:25.473Z,100.00
2022-08-20T18:02:56.161Z,100.00
2022-08-20T18:05:25.566Z,100.00
2022-08-20T18:08:10.913Z,100.00
2022-08-20T18:10:48.145Z,100.00
2022-08-20T18:13:20.263Z,100.00
2022-08-20T18:15:56.258Z,100.00
2022-08-20T18:18:32.246Z,100.00
2022-08-20T18:21:24.670Z,100.00
2022-08-20T18:24:01.258Z,100.00
2022-08-20T18:26:33.703Z,100.00
2022-08-20T18:29:12.305Z,100.00
2022-08-20T18:31:45.536Z,100.00
2022-08-20T18:34:17.014Z,100.00
2022-08-20T18:36:55.837Z,100.00
2022-08-20T18:39:30.136Z,100.00
2022-08-20T18:42:02.569Z,100.00
2022-08-20T18:44:39.800Z,100.00
2022-08-20T18:47:21.469Z,100.00
2022-08-20T18:50:02.248Z,100.00
2022-08-20T18:52:32.919Z,100.00
2022-08-20T18:55:10.634Z,100.00
2022-08-20T18:57:42.717Z,100.00
2022-08-20T19:00:16.974Z,100.00
2022-08-20T19:02:57.890Z,100.00
2022-08-20T19:05:30.058Z,100.00
2022-08-20T19:08:02.019Z,100.00
2022-08-20T19:10:48.033Z,100.00
2022-08-20T19:13:46.576Z,100.00
2022-08-20T19:16:21.087Z,100.00
2022-08-20T19:18:52.989Z,100.00
2022-08-20T19:21:26.382Z,100.00
2022-08-20T19:23:57.572Z,100.00
2022-08-20T19:26:31.463Z,100.00
2022-08-20T19:29:02.925Z,100.00
2022-08-20T19:31:33.783Z,100.00
2022-08-20T19:34:19.008Z,100.00
2022-08-20T19:36:57.101Z,99.68
2022-08-20T19:39:27.710Z,100.00
2022-08-20T19:42:05.300Z,100.00
2022-08-20T19:44:39.336Z,100.00
2022-08-20T19:47:17.958Z,100.00
2022-08-20T19:49:58.575Z,100.00
2022-08-20T19:52:38.804Z,98.98
2022-08-20T19:55:19.041Z,99.45
2022-08-20T19:57:54.326Z,99.93
2022-08-20T20:00:25.901Z,98.38
2022-08-20T20:02:56.753Z,99.24
2022-08-20T20:05:25.595Z,99.54
2022-08-20T20:07:59.731Z,100.00
2022-08-20T20:10:32.899Z,100.00
2022-08-20T20:13:09.796Z,100.00
2022-08-20T20:15:39.634Z,100.00
2022-08-20T20:18:09.157Z,100.00
2022-08-20T20:20:50.239Z,100.00
2022-08-20T20:23:38.564Z,100.00
2022-08-20T20:26:19.910Z,100.00
2022-08-20T20:28:53.679Z,100.00
2022-08-20T20:31:26.245Z,100.00
2022-08-20T20:33:58.451Z,100.00
2022-08-20T20:36:36.903Z,100.00
2022-08-20T20:39:13.765Z,100.00
2022-08-20T20:41:51.895Z,100.00
2022-08-20T20:44:24.089Z,100.00
2022-08-20T20:46:58.571Z,100.00
2022-08-20T20:49:29.401Z,100.00
2022-08-20T20:52:01.547Z,100.00
2022-08-20T20:54:40.785Z,100.00
2022-08-20T20:57:32.639Z,100.00
2022-08-20T21:00:14.568Z,100.00
2022-08-20T21:02:44.038Z,100.00
2022-08-20T21:05:14.380Z,100.00
2022-08-20T21:07:50.482Z,100.00
2022-08-20T21:10:21.664Z,100.00
2022-08-20T21:12:52.835Z,100.00
2022-08-20T21:15:25.657Z,100.00
2022-08-20T21:17:55.102Z,100.00
2022-08-20T21:20:23.944Z,100.00
2022-08-20T21:22:52.547Z,100.00
2022-08-20T21:25:21.526Z,100.00
2022-08-20T21:27:52.813Z,100.00
2022-08-20T21:30:24.136Z,100.00
2022-08-20T21:32:53.281Z,100.00
2022-08-20T21:35:22.563Z,100.00
2022-08-20T21:37:51.498Z,100.00
2022-08-20T21:40:21.505Z,100.00
2022-08-20T21:42:55.567Z,99.86
2022-08-20T21:45:28.365Z,100.00
2022-08-20T21:47:57.609Z,100.00
2022-08-20T21:50:27.221Z,100.00
2022-08-20T21:52:59.790Z,100.00
2022-08-20T21:55:33.909Z,100.00
2022-08-20T21:58:05.641Z,100.00
2022-08-20T22:01:04.348Z,100.00
2022-08-20T22:03:41.042Z,100.00
2022-08-20T22:06:12.810Z,100.00
2022-08-20T22:08:42.863Z,99.85
2022-08-20T22:11:12.881Z,99.46
2022-08-20T22:13:42.607Z,99.43
2022-08-20T22:16:16.533Z,99.79
2022-08-20T22:18:45.713Z,99.28
2022-08-20T22:21:18.624Z,99.44
2022-08-20T22:23:47.985Z,99.66
2022-08-20T22:26:17.963Z,99.47
2022-08-20T22:28:51.134Z,99.54
2022-08-20T22:31:24.768Z,100.00
2022-08-20T22:33:53.826Z,100.00
2022-08-20T22:36:22.432Z,100.00
2022-08-20T22:38:54.599Z,100.00
2022-08-20T22:41:24.139Z,100.00
2022-08-20T22:43:56.618Z,100.00
2022-08-20T22:46:30.343Z,100.00
2022-08-20T22:48:59.049Z,100.00
2022-08-20T22:51:30.960Z,100.00
2022-08-20T22:54:00.254Z,100.00
2022-08-20T22:56:29.878Z,100.00
2022-08-20T22:58:59.597Z,100.00
2022-08-20T23:01:31.411Z,100.00
2022-08-20T23:04:05.054Z,100.00
2022-08-20T23:06:33.885Z,100.00
2022-08-20T23:09:02.462Z,100.00
2022-08-20T23:11:31.798Z,100.00
2022-08-20T23:14:00.322Z,100.00
2022-08-20T23:16:30.355Z,100.00
2022-08-20T23:18:58.886Z,100.00
2022-08-20T23:21:27.449Z,100.00
2022-08-20T23:23:56.045Z,100.00
2022-08-20T23:26:25.069Z,100.00
2022-08-20T23:28:53.597Z,100.00
2022-08-20T23:31:22.199Z,100.00
2022-08-20T23:33:52.206Z,100.00
2022-08-20T23:36:22.103Z,98.49
2022-08-20T23:38:50.801Z,99.10
2022-08-20T23:41:19.878Z,99.04
2022-08-20T23:43:48.481Z,99.40
2022-08-20T23:46:17.634Z,100.00
2022-08-20T23:48:46.244Z,99.90
2022-08-20T23:51:16.185Z,99.98
2022-08-20T23:53:44.721Z,99.32
2022-08-20T23:56:13.493Z,98.75
2022-08-20T23:58:42.129Z,99.33
